createdAt,value
2022-11-22T00:04:03.023Z,39.50
2022-11-22T00:09:23.066Z,39.30
2022-11-22T00:14:43.381Z,39.30
2022-11-22T00:20:03.540Z,39.30
2022-11-22T00:25:24.379Z,39.30
2022-11-22T00:30:44.628Z,39.30
2022-11-22T00:36:04.751Z,39.30
2022-11-22T00:41:25.036Z,39.30
2022-11-22T00:46:45.134Z,39.30
2022-11-22T00:52:05.291Z,39.30
2022-11-22T00:57:25.282Z,39.30
2022-11-22T01:02:45.431Z,39.30
2022-11-22T01:08:05.408Z,39.30
2022-11-22T01:13:25.629Z,39.30
2022-11-22T01:18:46.294Z,39.30
2022-11-22T01:24:06.584Z,39.30
2022-11-22T01:29:26.788Z,39.30
2022-11-22T01:34:47.079Z,39.30
2022-11-22T01:40:07.032Z,39.30
2022-11-22T01:45:27.098Z,39.20
2022-11-22T01:50:47.319Z,39.30
2022-11-22T01:56:07.546Z,39.20
2022-11-22T02:01:27.878Z,39.30
2022-11-22T02:06:48.030Z,39.30
2022-11-22T02:12:08.102Z,39.30
2022-11-22T02:17:28.206Z,39.20
2022-11-22T02:22:48.355Z,39.30
2022-11-22T02:28:08.643Z,39.20
2022-11-22T02:33:28.727Z,39.20
2022-11-22T02:38:48.936Z,39.20
2022-11-22T02:44:09.110Z,39.20
2022-11-22T02:49:29.498Z,39.20
2022-11-22T02:54:49.926Z,39.20
2022-11-22T03:00:10.074Z,39.20
2022-11-22T03:05:30.300Z,39.30
2022-11-22T03:10:50.479Z,39.30
2022-11-22T03:16:10.746Z,39.30
2022-11-22T03:21:30.767Z,39.30
2022-11-22T03:26:51.066Z,39.30
2022-11-22T03:32:11.187Z,39.30
2022-11-22T03:37:31.389Z,39.30
2022-11-22T03:42:51.497Z,39.20
2022-11-22T03:48:11.808Z,39.20
2022-11-22T03:53:31.864Z,39.30
2022-11-22T03:58:52.503Z,39.20
2022-11-22T04:04:12.642Z,39.30
2022-11-22T04:09:33.196Z,39.20
2022-11-22T04:14:53.388Z,39.20
2022-11-22T04:20:13.471Z,39.20
2022-11-22T04:25:33.560Z,39.20
2022-11-22T04:30:53.700Z,39.20
2022-11-22T04:36:13.723Z,39.20
2022-11-22T04:41:33.798Z,39.20
2022-11-22T04:46:53.839Z,39.30
2022-11-22T04:52:14.443Z,39.20
2022-11-22T04:57:34.450Z,39.20
2022-11-22T05:02:54.745Z,39.20
2022-11-22T05:08:14.690Z,39.20
2022-11-22T05:13:34.956Z,39.20
2022-11-22T05:18:55.229Z,39.20
2022-11-22T05:24:15.439Z,39.30
2022-11-22T05:29:35.582Z,39.20
2022-11-22T05:34:55.635Z,39.20
2022-11-22T05:40:15.697Z,39.30
2022-11-22T05:45:35.856Z,39.20
2022-11-22T05:50:56.011Z,39.30
2022-11-22T05:56:16.120Z,39.20
2022-11-22T06:01:36.215Z,39.30
2022-11-22T06:06:56.565Z,39.30
2022-11-22T06:12:16.690Z,39.20
2022-11-22T06:17:36.850Z,39.20
2022-11-22T06:22:56.926Z,39.20
2022-11-22T06:28:17.167Z,39.20
2022-11-22T06:33:37.216Z,39.20
2022-11-22T06:38:57.484Z,39.20
2022-11-22T06:44:17.659Z,39.30
2022-11-22T06:49:37.923Z,39.30
2022-11-22T06:54:57.995Z,39.30
2022-11-22T07:00:18.306Z,39.30
2022-11-22T07:05:38.359Z,39.30
2022-11-22T07:10:58.622Z,39.30
2022-11-22T07:16:18.651Z,39.30
2022-11-22T07:21:38.791Z,39.30
2022-11-22T07:26:58.991Z,39.30
2022-11-22T07:32:19.147Z,39.30
2022-11-22T07:37:39.298Z,39.30
2022-11-22T07:42:59.435Z,39.30
2022-11-22T07:48:19.551Z,39.30
2022-11-22T07:53:39.693Z,39.30
2022-11-22T07:58:59.888Z,39.30
2022-11-22T08:04:20.083Z,39.20
2022-11-22T08:09:40.248Z,39.30
2022-11-22T08:15:00.362Z,39.20
2022-11-22T08:20:20.547Z,39.20
2022-11-22T08:25:40.689Z,39.30
2022-11-22T08:31:00.853Z,39.30
2022-11-22T08:36:20.920Z,39.20
2022-11-22T08:41:41.130Z,39.20
2022-11-22T08:47:01.339Z,39.20
2022-11-22T08:52:21.468Z,39.20
2022-11-22T08:57:41.658Z,39.20
2022-11-22T09:03:01.952Z,39.20
2022-11-22T09:13:47.211Z,39.20
2022-11-22T09:19:07.352Z,39.30
2022-11-22T09:24:27.462Z,39.20
2022-11-22T09:29:47.642Z,39.20
2022-11-22T09:35:07.850Z,39.20
2022-11-22T09:40:27.927Z,39.20
2022-11-22T09:45:47.886Z,39.20
2022-11-22T09:51:08.151Z,39.20
2022-11-22T09:56:28.183Z,39.20
2022-11-22T10:01:48.428Z,39.20
2022-11-22T10:07:08.600Z,39.20
2022-11-22T10:12:28.860Z,39.20
2022-11-22T10:17:49.090Z,39.20
2022-11-22T10:23:09.319Z,39.20
2022-11-22T10:28:29.469Z,39.10
2022-11-22T10:33:49.695Z,39.20
2022-11-22T10:39:09.656Z,39.10
2022-11-22T10:44:29.947Z,39.10
2022-11-22T10:49:50.059Z,39.10
2022-11-22T10:55:10.341Z,39.20
2022-11-22T11:00:30.474Z,39.20
2022-11-22T11:06:20.960Z,39.20
2022-11-22T11:11:30.536Z,39.20
2022-11-22T11:16:50.750Z,39.10
2022-11-22T11:22:10.804Z,39.10
2022-11-22T11:27:31.743Z,39.20
2022-11-22T11:32:51.864Z,39.20
2022-11-22T11:38:12.051Z,39.20
2022-11-22T11:43:32.039Z,39.10
2022-11-22T11:48:52.237Z,39.20
2022-11-22T11:54:12.233Z,39.20
2022-11-22T11:59:32.600Z,39.20
2022-11-22T12:04:53.059Z,39.20
2022-11-22T12:10:13.321Z,39.20
2022-11-22T12:15:33.478Z,39.10
2022-11-22T12:20:53.708Z,39.20
2022-11-22T12:26:13.675Z,39.20
2022-11-22T12:31:33.875Z,39.10
2022-11-22T12:36:53.875Z,39.20
2022-11-22T12:42:16.462Z,39.20
2022-11-22T12:47:40.235Z,39.10
2022-11-22T12:53:00.298Z,39.20
2022-11-22T12:58:20.442Z,39.10
2022-11-22T13:03:40.576Z,39.20
2022-11-22T13:09:04.021Z,39.20
2022-11-22T13:14:24.457Z,39.20
2022-11-22T13:19:46.969Z,39.10
2022-11-22T13:25:07.787Z,39.20
2022-11-22T13:30:27.911Z,39.10
2022-11-22T13:35:47.915Z,39.10
2022-11-22T13:41:08.101Z,39.10
2022-11-22T13:46:28.284Z,39.20
2022-11-22T13:51:48.471Z,39.20
2022-11-22T13:57:08.603Z,39.20
2022-11-22T14:02:28.706Z,39.20
2022-11-22T14:07:48.841Z,39.20
2022-11-22T14:13:09.102Z,39.10
2022-11-22T14:18:29.349Z,39.20
2022-11-22T14:23:49.379Z,39.20
2022-11-22T14:29:09.414Z,39.20
2022-11-22T14:34:29.743Z,39.10
2022-11-22T14:39:50.057Z,39.20
2022-11-22T14:45:10.155Z,39.20
2022-11-22T14:50:30.295Z,39.00
2022-11-22T14:55:50.738Z,39.10
2022-11-22T15:01:10.851Z,39.10
2022-11-22T15:09:22.950Z,39.20
2022-11-22T15:12:11.287Z,39.20
2022-11-22T16:02:32.475Z,39.10
2022-11-22T16:07:52.821Z,39.10
2022-11-22T16:13:12.895Z,39.10
2022-11-22T16:18:32.882Z,39.10
2022-11-22T16:23:53.178Z,39.20
2022-11-22T16:29:13.287Z,39.20
2022-11-22T16:34:33.381Z,39.20
2022-11-22T16:39:53.335Z,39.20
2022-11-22T16:45:13.477Z,39.30
2022-11-22T16:50:33.682Z,39.60
2022-11-22T16:55:53.968Z,39.60
2022-11-22T17:01:14.259Z,39.30
2022-11-22T17:06:34.383Z,39.00
2022-11-22T17:11:54.461Z,38.40
2022-11-22T17:17:14.673Z,37.80
2022-11-22T17:22:34.753Z,37.40
2022-11-22T17:27:54.938Z,37.10
2022-11-22T17:33:15.075Z,36.70
2022-11-22T17:38:35.210Z,36.80
2022-11-22T17:43:55.270Z,36.70
2022-11-22T17:49:16.367Z,36.60
2022-11-22T17:54:36.504Z,36.60
2022-11-22T17:59:56.860Z,36.70
2022-11-22T18:05:17.023Z,36.90
2022-11-22T18:10:37.141Z,37.20
2022-11-22T18:16:01.665Z,37.40
2022-11-22T18:21:23.511Z,37.40
2022-11-22T18:26:43.829Z,37.20
2022-11-22T18:32:03.679Z,37.00
2022-11-22T18:37:23.863Z,36.80
2022-11-22T18:42:44.003Z,36.70
2022-11-22T18:48:04.191Z,36.60
2022-11-22T18:53:24.318Z,36.60
2022-11-22T18:58:44.324Z,36.70
2022-11-22T19:04:04.477Z,36.70
2022-11-22T19:09:24.784Z,36.80
2022-11-22T19:14:44.898Z,37.00
2022-11-22T19:20:05.216Z,37.10
2022-11-22T19:25:25.281Z,37.20
2022-11-22T19:30:45.395Z,37.40
2022-11-22T19:36:05.553Z,37.60
2022-11-22T19:41:25.624Z,37.70
2022-11-22T19:46:45.843Z,37.80
2022-11-22T19:52:06.147Z,38.00
2022-11-22T19:57:26.191Z,38.00
2022-11-22T20:02:46.277Z,39.00
2022-11-22T20:08:06.601Z,39.10
2022-11-22T20:13:26.809Z,39.00
2022-11-22T20:18:46.817Z,38.90
2022-11-22T20:24:06.816Z,38.90
2022-11-22T20:29:27.050Z,39.00
2022-11-22T20:34:47.160Z,39.00
2022-11-22T20:40:07.324Z,39.00
2022-11-22T20:45:27.413Z,39.00
2022-11-22T20:50:47.594Z,39.10
2022-11-22T20:56:07.709Z,39.00
2022-11-22T21:01:27.935Z,39.10
2022-11-22T21:06:47.957Z,39.10
2022-11-22T21:12:08.104Z,39.40
2022-11-22T21:18:02.448Z,39.40
2022-11-22T21:23:07.943Z,39.30
2022-11-22T21:28:28.113Z,39.30
2022-11-22T21:33:48.284Z,39.30
2022-11-22T21:39:08.334Z,39.30
2022-11-22T21:44:28.883Z,39.40
2022-11-22T21:49:49.130Z,39.40
2022-11-22T21:55:09.204Z,39.70
2022-11-22T22:00:29.402Z,39.40
2022-11-22T22:05:49.535Z,39.40
2022-11-22T22:11:09.661Z,39.40
2022-11-22T22:16:29.826Z,39.40
2022-11-22T22:21:50.054Z,39.40
2022-11-22T22:27:10.256Z,39.50
2022-11-22T22:32:30.219Z,39.50
2022-11-22T22:37:50.477Z,39.40
2022-11-22T22:43:10.370Z,39.40
2022-11-22T22:48:30.565Z,39.40
2022-11-22T22:53:50.594Z,39.60
2022-11-22T22:59:10.767Z,39.50
2022-11-22T23:04:30.846Z,39.50
2022-11-22T23:09:51.007Z,39.50
2022-11-22T23:15:11.123Z,39.50
2022-11-22T23:20:31.214Z,39.50
2022-11-22T23:25:51.350Z,39.50
2022-11-22T23:31:11.552Z,39.60
2022-11-22T23:36:36.054Z,39.60
2022-11-22T23:41:59.332Z,39.60
2022-11-22T23:47:19.695Z,39.60
2022-11-22T23:52:39.822Z,39.60
2022-11-22T23:58:00.081Z,39.60
